メインページ
METAR-TAF:

METAR-TAF

空港 :

ケアンズ, オーストラリア

ケアンズ国際空港

緯度: 16-53S, 経度: 145-45E, 海抜: 3m

現時点の気象観測

当レポートは37分前の10:00(UTC)に作成
変向風 5kt
気温 27°C
湿度 84%
気圧 1008 hPa
視程10km以上
高度1200ftの雲はほとんどない
高度2000ftの千切れ雲あり
高度4500ftの千切れ雲あり
高度2000ftの雲はほとんどない, 積乱雲.
高度1500ftの雲はほとんどない
高度2200ftの雲は散在している
高度4000ftの千切れ雲あり
激しい雷雨, 雨, 弱いにわか雨, 弱いにわか雨

METAR: YBCS 231000Z 26007KT 9999 TSRA -SHRA FEW012 BKN020 BKN045 FEW020CB 27/24 Q1008 TOWARDS AIRPORT FM1000 VRB05KT 9999 -SHRA FEW015 SCT022 BKN040 TEMPO 1000/1300 VRB15G25KT 1000 TSRA FEW005 BKN015 SCT025CB

時間: 20:37 (10:37 UTC)

予報

当レポートは2時間11分前の08:26(UTC)に作成
予報は23日の 09時(UTC)から 24日の 06時(UTC)まで有効
の風 10kt
視程: 4000m
高度2000ftの雲は散在している
高度4500ftの雲は散在している
高度1000ftの雲はほとんどない
高度1800ftの千切れ雲あり
弱いにわか雨, にわか雨
確率 30% :
23日の 09時(UTC)から 23日の 16時(UTC)まで一時的に
北/北西の風 15kt、最大25ktの突風を伴う
視程: 1000m
高度800ftの雲は散在している
高度2500ftの雲は散在している, 積乱雲.
激しい雷雨, 雨

TAF: YBCS 230826Z 2309/2406 36010KT 9999 -SHRA SCT020 SCT045 INTER 2309/2324 4000 SHRA FEW010 BKN018 PROB30 TEMPO 2309/2316 33015G25KT 1000 TSRA SCT008 SCT025CB

4,000以上の空港の気象観測と天気予報(METAR報とTAF報)

利用可能な観測所は地図上に黄色い丸と赤い丸で示す。

丸の上にカーソルを重ねると観測所名を参照できる。

次にクリックすると気象観測と天気予報を参照できる。

マップの切り替え:黒色「×」印の緑ボタンをクリックして拡大、「-」印の緑ボタンをクリックして縮小、緑色の三角印をクリックして隣りの地図に切り替え


METAR-TAF: